createdAt,value
2019-03-09T00:00:41.221Z,8.81
2019-03-09T00:03:13.213Z,8.77
2019-03-09T00:05:44.344Z,8.68
2019-03-09T00:08:15.502Z,8.58
2019-03-09T00:10:46.655Z,8.58
2019-03-09T00:13:19.650Z,8.55
2019-03-09T00:15:50.797Z,8.51
2019-03-09T00:18:22.052Z,8.52
2019-03-09T00:20:53.181Z,8.51
2019-03-09T00:23:26.239Z,8.45
2019-03-09T00:26:10.644Z,8.40
2019-03-09T00:29:00.941Z,8.42
2019-03-09T00:31:39.851Z,8.35
2019-03-09T00:34:11.050Z,8.38
2019-03-09T00:36:43.705Z,8.38
2019-03-09T00:39:16.437Z,8.33
2019-03-09T00:41:48.454Z,8.30
2019-03-09T00:44:18.880Z,8.24
2019-03-09T00:46:49.993Z,8.18
2019-03-09T00:49:21.414Z,8.21
2019-03-09T00:51:52.752Z,8.16
2019-03-09T00:54:25.001Z,8.13
2019-03-09T00:56:56.113Z,8.11
2019-03-09T00:59:27.349Z,8.06
2019-03-09T01:01:58.484Z,8.05
2019-03-09T01:04:29.666Z,8.05
2019-03-09T01:07:00.815Z,8.04
2019-03-09T01:09:31.948Z,8.01
2019-03-09T01:12:03.089Z,7.92
2019-03-09T01:14:34.795Z,7.89
2019-03-09T01:17:08.230Z,7.90
2019-03-09T01:19:39.386Z,7.83
2019-03-09T01:22:10.485Z,7.82
2019-03-09T01:24:41.686Z,7.77
2019-03-09T01:27:12.917Z,7.79
2019-03-09T01:29:44.057Z,7.75
2019-03-09T01:32:15.178Z,7.66
2019-03-09T01:34:46.462Z,7.63
2019-03-09T01:37:17.559Z,7.64
2019-03-09T01:39:47.990Z,7.59
2019-03-09T01:42:19.074Z,7.60
2019-03-09T01:44:50.230Z,7.55
2019-03-09T01:47:21.351Z,7.52
2019-03-09T01:49:52.593Z,7.52
2019-03-09T01:52:24.562Z,7.54
2019-03-09T01:54:55.719Z,7.52
2019-03-09T01:57:26.841Z,7.50
2019-03-09T01:59:58.035Z,7.47
2019-03-09T02:02:29.226Z,7.47
2019-03-09T02:05:00.479Z,7.44
2019-03-09T02:07:31.633Z,7.44
2019-03-09T02:10:02.895Z,7.43
2019-03-09T02:12:34.984Z,7.44
2019-03-09T02:15:11.659Z,7.37
2019-03-09T02:17:42.792Z,7.32
2019-03-09T02:20:17.567Z,7.28
2019-03-09T02:22:48.667Z,7.26
2019-03-09T02:25:19.848Z,6.97
2019-03-09T02:27:51.028Z,7.16
2019-03-09T02:30:22.236Z,7.15
2019-03-09T02:32:53.376Z,7.07
2019-03-09T02:35:24.493Z,7.06
2019-03-09T02:37:57.246Z,7.02
2019-03-09T02:40:29.558Z,6.97
2019-03-09T02:43:00.667Z,6.98
2019-03-09T02:45:32.701Z,6.96
2019-03-09T02:48:03.820Z,6.93
2019-03-09T02:50:36.529Z,6.93
2019-03-09T02:53:07.700Z,6.88
2019-03-09T02:55:38.802Z,6.92
2019-03-09T02:58:10.011Z,6.92
2019-03-09T03:00:42.779Z,6.83
2019-03-09T03:03:13.926Z,6.86
2019-03-09T03:05:45.008Z,6.80
2019-03-09T03:08:15.498Z,6.78
2019-03-09T03:10:46.508Z,6.71
2019-03-09T03:13:17.097Z,6.73
2019-03-09T03:15:49.737Z,6.68
2019-03-09T03:18:22.424Z,6.67
2019-03-09T03:20:53.639Z,6.58
2019-03-09T03:23:24.802Z,6.55
2019-03-09T03:25:55.967Z,6.53
2019-03-09T03:28:27.829Z,6.54
2019-03-09T03:30:59.004Z,6.49
2019-03-09T03:33:30.288Z,6.54
2019-03-09T03:36:01.434Z,6.59
2019-03-09T03:38:32.577Z,6.62
2019-03-09T03:41:03.048Z,6.57
2019-03-09T03:43:34.286Z,6.61
2019-03-09T03:46:05.543Z,6.65
2019-03-09T03:48:36.750Z,6.65
2019-03-09T03:51:09.357Z,6.61
2019-03-09T03:53:41.713Z,6.60
2019-03-09T03:56:14.220Z,6.55
2019-03-09T03:58:46.962Z,6.61
2019-03-09T04:01:18.123Z,6.62
2019-03-09T04:03:49.322Z,6.57
2019-03-09T04:06:20.436Z,6.53
2019-03-09T04:08:50.983Z,6.54
2019-03-09T04:11:22.143Z,6.52
2019-03-09T04:13:54.311Z,6.55
2019-03-09T04:16:25.424Z,6.52
2019-03-09T04:18:58.081Z,6.53
2019-03-09T04:21:30.101Z,6.50
2019-03-09T04:24:00.535Z,6.44
2019-03-09T04:26:31.655Z,6.47
2019-03-09T04:29:04.382Z,6.47
2019-03-09T04:31:36.529Z,6.45
2019-03-09T04:34:07.700Z,6.39
2019-03-09T04:36:40.433Z,6.40
2019-03-09T04:39:11.488Z,6.37
2019-03-09T04:41:41.896Z,6.38
2019-03-09T04:44:12.979Z,6.36
2019-03-09T04:46:45.106Z,6.40
2019-03-09T04:49:18.378Z,6.39
2019-03-09T04:51:51.746Z,6.41
2019-03-09T04:54:22.918Z,6.40
2019-03-09T04:56:54.061Z,6.51
2019-03-09T04:59:26.250Z,6.46
2019-03-09T05:01:58.680Z,6.45
2019-03-09T05:04:41.935Z,6.43
2019-03-09T05:07:16.073Z,6.46
2019-03-09T05:09:58.961Z,6.49
2019-03-09T05:12:31.013Z,6.59
2019-03-09T05:15:02.021Z,6.58
2019-03-09T05:17:32.475Z,6.59
2019-03-09T05:20:03.942Z,6.56
2019-03-09T05:22:35.014Z,6.62
2019-03-09T05:25:05.463Z,6.62
2019-03-09T05:27:36.509Z,6.36
2019-03-09T05:30:11.400Z,6.36
2019-03-09T05:32:42.565Z,6.68
2019-03-09T05:35:13.758Z,6.72
2019-03-09T05:37:44.917Z,6.93
2019-03-09T05:40:16.778Z,7.74
2019-03-09T05:42:47.874Z,8.51
2019-03-09T05:45:19.031Z,9.72
2019-03-09T05:47:51.171Z,11.16
2019-03-09T05:50:22.432Z,11.99
2019-03-09T05:53:03.107Z,12.89
2019-03-09T05:55:34.384Z,13.81
2019-03-09T05:58:05.627Z,14.19
2019-03-09T06:00:38.437Z,14.72
2019-03-09T06:03:10.023Z,14.71
2019-03-09T06:05:47.273Z,15.28
2019-03-09T06:08:19.268Z,16.02
2019-03-09T06:10:50.650Z,16.48
2019-03-09T06:13:21.872Z,16.70
2019-03-09T06:15:53.084Z,16.38
2019-03-09T06:18:25.859Z,17.06
2019-03-09T06:20:57.075Z,16.41
2019-03-09T06:23:30.552Z,16.82
2019-03-09T06:26:05.208Z,17.77
2019-03-09T06:28:36.396Z,18.20
2019-03-09T06:31:08.815Z,18.45
2019-03-09T06:33:40.046Z,18.54
2019-03-09T06:36:23.550Z,18.23
2019-03-09T06:39:00.337Z,17.69
2019-03-09T06:41:55.655Z,18.07
2019-03-09T06:44:26.913Z,17.52
2019-03-09T06:46:58.224Z,19.02
2019-03-09T06:49:29.481Z,19.96
2019-03-09T06:52:00.812Z,19.38
2019-03-09T06:54:32.048Z,19.39
2019-03-09T06:58:20.046Z,19.40
2019-03-09T07:00:51.292Z,19.85
2019-03-09T07:03:22.542Z,20.78
2019-03-09T07:05:55.283Z,20.50
2019-03-09T07:08:26.522Z,20.42
2019-03-09T07:10:58.556Z,20.90
2019-03-09T07:13:29.794Z,21.00
2019-03-09T07:16:01.016Z,21.20
2019-03-09T07:18:33.143Z,21.10
2019-03-09T07:21:05.723Z,21.46
2019-03-09T07:23:38.671Z,20.93
2019-03-09T07:26:09.928Z,19.96
2019-03-09T07:28:41.205Z,20.56
2019-03-09T07:31:12.514Z,21.37
2019-03-09T07:33:43.802Z,21.38
2019-03-09T07:36:15.467Z,21.57
2019-03-09T07:38:47.730Z,20.70
2019-03-09T07:41:18.980Z,20.93
2019-03-09T07:43:50.992Z,21.40
2019-03-09T07:46:22.265Z,21.75
2019-03-09T07:48:53.625Z,22.24
2019-03-09T07:51:24.903Z,22.39
2019-03-09T07:53:56.282Z,22.49
2019-03-09T07:56:27.491Z,22.93
2019-03-09T07:58:58.848Z,21.80
2019-03-09T08:01:29.978Z,22.03
2019-03-09T08:04:01.300Z,21.26
2019-03-09T08:06:32.563Z,19.56
2019-03-09T08:09:04.741Z,18.27
2019-03-09T08:11:40.321Z,18.08
2019-03-09T08:14:14.681Z,16.58
2019-03-09T08:16:48.127Z,16.01
2019-03-09T08:19:19.356Z,15.47
2019-03-09T08:21:50.493Z,15.47
2019-03-09T08:24:21.688Z,15.06
2019-03-09T08:26:52.839Z,14.83
2019-03-09T08:29:24.021Z,14.27
2019-03-09T08:31:55.240Z,13.97
2019-03-09T08:34:26.501Z,13.75
2019-03-09T08:36:57.649Z,13.30
2019-03-09T08:39:30.445Z,12.82
2019-03-09T08:42:03.162Z,12.55
2019-03-09T08:44:34.394Z,11.65
2019-03-09T08:47:05.557Z,11.70
2019-03-09T08:49:37.569Z,11.83
2019-03-09T08:52:08.822Z,12.10
2019-03-09T08:54:41.415Z,12.07
2019-03-09T08:57:13.899Z,11.93
2019-03-09T08:59:45.233Z,11.81
2019-03-09T09:02:16.324Z,11.62
2019-03-09T09:04:46.806Z,11.38
2019-03-09T09:07:18.261Z,11.29
2019-03-09T09:09:49.605Z,11.43
2019-03-09T09:12:20.773Z,11.24
2019-03-09T09:14:51.962Z,11.29
2019-03-09T09:17:23.143Z,11.40
2019-03-09T09:19:54.537Z,11.07
2019-03-09T09:22:25.707Z,10.89
2019-03-09T09:24:58.784Z,10.83
2019-03-09T09:27:30.605Z,10.91
2019-03-09T09:30:01.886Z,10.91
2019-03-09T09:32:36.026Z,10.82
2019-03-09T09:35:11.886Z,10.94
2019-03-09T09:37:43.031Z,11.04
2019-03-09T09:40:19.936Z,11.15
2019-03-09T09:42:51.101Z,11.14
2019-03-09T09:45:23.938Z,11.24
2019-03-09T09:47:55.132Z,11.24
2019-03-09T09:50:26.341Z,11.10
2019-03-09T09:52:57.441Z,11.08
2019-03-09T09:55:28.646Z,11.22
2019-03-09T09:57:59.694Z,11.29
2019-03-09T10:00:30.878Z,11.54
2019-03-09T10:03:01.964Z,11.88
2019-03-09T10:05:33.522Z,12.02
2019-03-09T10:08:04.624Z,11.89
2019-03-09T10:10:35.801Z,11.86
2019-03-09T10:13:06.893Z,11.84
2019-03-09T10:15:39.497Z,11.71
2019-03-09T10:18:10.760Z,11.74
2019-03-09T10:20:41.918Z,11.77
2019-03-09T10:23:15.072Z,11.63
2019-03-09T10:25:46.355Z,11.63
2019-03-09T10:28:17.522Z,11.55
2019-03-09T10:30:48.676Z,11.57
2019-03-09T10:33:19.828Z,11.80
2019-03-09T10:35:52.457Z,11.89
2019-03-09T10:38:23.591Z,12.00
2019-03-09T10:40:54.820Z,11.85
2019-03-09T10:43:26.120Z,11.94
2019-03-09T10:45:58.579Z,12.00
2019-03-09T10:48:29.716Z,11.86
2019-03-09T10:51:00.900Z,11.67
2019-03-09T10:55:34.015Z,11.99
2019-03-09T10:58:05.438Z,12.19
2019-03-09T11:00:41.727Z,12.22
2019-03-09T11:03:12.871Z,12.19
2019-03-09T11:05:44.012Z,12.17
2019-03-09T11:08:15.129Z,12.19
2019-03-09T11:10:46.275Z,12.22
2019-03-09T11:13:17.551Z,12.25
2019-03-09T11:15:49.270Z,12.20
2019-03-09T11:18:20.509Z,12.28
2019-03-09T11:20:51.735Z,12.23
2019-03-09T11:23:23.000Z,12.19
2019-03-09T11:25:55.926Z,12.17
2019-03-09T11:28:29.547Z,12.11
2019-03-09T11:31:03.844Z,12.22
2019-03-09T11:33:36.210Z,12.23
2019-03-09T11:36:07.763Z,11.93
2019-03-09T11:38:42.787Z,12.01
2019-03-09T11:41:19.283Z,12.19
2019-03-09T11:43:50.430Z,12.12
2019-03-09T11:46:22.105Z,12.27
2019-03-09T11:48:52.556Z,12.37
2019-03-09T11:51:23.596Z,12.37
2019-03-09T11:53:56.409Z,12.48
2019-03-09T11:56:27.517Z,12.52
2019-03-09T11:58:58.673Z,12.58
2019-03-09T12:01:29.770Z,12.52
2019-03-09T12:04:02.481Z,12.50
2019-03-09T12:06:33.618Z,12.63
2019-03-09T12:09:05.375Z,12.55
2019-03-09T12:11:38.083Z,12.53
2019-03-09T12:14:11.897Z,12.64
2019-03-09T12:16:43.014Z,12.78
2019-03-09T12:19:14.233Z,12.73
2019-03-09T12:21:45.316Z,12.60
2019-03-09T12:24:19.896Z,12.37
2019-03-09T12:26:49.271Z,12.26
2019-03-09T12:29:21.390Z,12.42
2019-03-09T12:31:54.169Z,12.52
2019-03-09T12:34:25.594Z,12.64
2019-03-09T12:36:56.752Z,12.62
2019-03-09T12:39:27.936Z,12.51
2019-03-09T12:41:59.387Z,12.65
2019-03-09T12:44:30.481Z,12.69
2019-03-09T12:47:01.608Z,12.66
2019-03-09T12:49:32.878Z,12.65
2019-03-09T12:52:04.062Z,12.81
2019-03-09T12:54:35.272Z,12.73
2019-03-09T12:57:06.485Z,12.76
2019-03-09T12:59:37.754Z,12.83
2019-03-09T13:02:09.034Z,12.85
2019-03-09T13:04:40.331Z,12.57
2019-03-09T13:07:11.457Z,12.58
2019-03-09T13:09:43.012Z,12.67
2019-03-09T13:12:15.768Z,12.66
2019-03-09T13:14:46.968Z,12.64
2019-03-09T13:17:18.178Z,12.63
2019-03-09T13:19:50.458Z,12.65
2019-03-09T13:22:22.847Z,12.50
2019-03-09T13:24:56.132Z,12.42
2019-03-09T13:27:27.283Z,12.50
2019-03-09T13:30:00.130Z,12.59
2019-03-09T13:32:33.474Z,12.52
2019-03-09T13:35:05.076Z,12.62
2019-03-09T13:37:36.152Z,12.63
2019-03-09T13:40:07.742Z,12.64
2019-03-09T13:42:38.681Z,12.56
2019-03-09T13:45:14.888Z,12.39
2019-03-09T13:47:46.028Z,12.44
2019-03-09T13:50:17.181Z,12.39
2019-03-09T13:52:48.673Z,12.31
2019-03-09T13:55:19.816Z,12.29
2019-03-09T13:57:51.005Z,12.29
2019-03-09T14:00:22.132Z,12.27
2019-03-09T14:02:53.275Z,12.32
2019-03-09T14:05:24.523Z,12.20
2019-03-09T14:07:55.704Z,12.08
2019-03-09T14:10:26.967Z,12.12
2019-03-09T14:12:58.067Z,12.04
2019-03-09T14:15:29.346Z,12.02
2019-03-09T14:18:00.587Z,12.03
2019-03-09T14:20:31.848Z,12.02
2019-03-09T14:23:03.112Z,12.06
2019-03-09T14:25:34.418Z,12.01
2019-03-09T14:28:05.554Z,12.05
2019-03-09T14:30:36.933Z,11.98
2019-03-09T14:33:08.229Z,12.08
2019-03-09T14:35:41.101Z,12.08
2019-03-09T14:38:12.347Z,12.13
2019-03-09T14:40:46.633Z,12.11
2019-03-09T14:43:19.531Z,12.06
2019-03-09T14:45:52.387Z,11.96
2019-03-09T14:48:23.665Z,11.92
2019-03-09T14:50:54.859Z,11.82
2019-03-09T14:53:26.072Z,11.73
2019-03-09T14:55:59.411Z,11.55
2019-03-09T14:58:31.051Z,11.64
2019-03-09T15:01:02.341Z,11.58
2019-03-09T15:03:33.753Z,11.64
2019-03-09T15:06:05.009Z,11.56
2019-03-09T15:08:36.073Z,11.47
2019-03-09T15:11:06.455Z,11.44
2019-03-09T15:13:37.428Z,11.37
2019-03-09T15:16:09.680Z,11.27
2019-03-09T15:18:41.032Z,11.21
2019-03-09T15:21:13.908Z,11.17
2019-03-09T15:23:45.518Z,11.14
2019-03-09T15:26:16.870Z,11.07
2019-03-09T15:28:48.165Z,11.03
2019-03-09T15:31:19.444Z,11.02
2019-03-09T15:33:51.107Z,10.98
2019-03-09T15:36:22.464Z,10.89
2019-03-09T15:38:53.681Z,10.84
2019-03-09T15:41:24.936Z,10.78
2019-03-09T15:43:56.917Z,10.71
2019-03-09T15:46:28.295Z,10.69
2019-03-09T15:48:59.565Z,10.62
2019-03-09T15:51:30.835Z,10.59
2019-03-09T15:54:02.111Z,10.56
2019-03-09T15:56:33.373Z,10.52
2019-03-09T15:59:04.603Z,10.49
2019-03-09T16:01:35.837Z,10.50
2019-03-09T16:04:07.061Z,10.45
2019-03-09T16:06:38.353Z,10.41
2019-03-09T16:09:09.555Z,10.33
2019-03-09T16:11:45.009Z,10.29
2019-03-09T16:14:14.726Z,10.28
2019-03-09T16:16:47.427Z,10.24
2019-03-09T16:19:19.703Z,10.24
2019-03-09T16:21:51.319Z,10.28
2019-03-09T16:24:25.515Z,10.28
2019-03-09T16:26:57.036Z,10.25
2019-03-09T16:29:28.320Z,10.25
2019-03-09T16:32:00.620Z,10.26
2019-03-09T16:34:31.851Z,10.19
2019-03-09T16:37:04.812Z,10.15
2019-03-09T16:39:37.077Z,10.11
2019-03-09T16:42:09.123Z,10.19
2019-03-09T16:44:40.364Z,10.12
2019-03-09T16:47:14.656Z,10.08
2019-03-09T16:49:45.813Z,10.06
2019-03-09T16:52:20.987Z,10.07
2019-03-09T16:54:52.290Z,10.15
2019-03-09T16:57:24.305Z,10.17
2019-03-09T16:59:55.547Z,10.20
2019-03-09T17:02:29.909Z,10.22
2019-03-09T17:05:01.155Z,10.24
2019-03-09T17:07:32.571Z,10.23
2019-03-09T17:10:04.199Z,10.32
2019-03-09T17:12:36.302Z,10.27
2019-03-09T17:15:12.980Z,10.28
2019-03-09T17:17:44.334Z,10.31
2019-03-09T17:20:16.885Z,10.26
2019-03-09T17:22:48.235Z,10.24
2019-03-09T17:25:19.427Z,10.28
2019-03-09T17:27:50.726Z,10.29
2019-03-09T17:30:21.937Z,10.28
2019-03-09T17:32:53.224Z,10.28
2019-03-09T17:35:28.590Z,10.31
2019-03-09T17:37:59.919Z,10.31
2019-03-09T17:40:31.125Z,10.22
2019-03-09T17:43:02.431Z,10.34
2019-03-09T17:45:35.849Z,10.41
2019-03-09T17:48:09.065Z,10.47
2019-03-09T17:50:43.739Z,10.38
2019-03-09T17:53:15.783Z,10.24
2019-03-09T17:55:47.763Z,10.05
2019-03-09T17:58:19.015Z,9.88
2019-03-09T18:00:50.161Z,9.69
2019-03-09T18:03:21.307Z,9.45
2019-03-09T18:05:51.750Z,9.19
2019-03-09T18:08:23.972Z,9.02
2019-03-09T18:11:01.055Z,8.78
2019-03-09T18:13:33.985Z,8.69
2019-03-09T18:16:08.307Z,8.59
2019-03-09T18:18:42.620Z,8.45
2019-03-09T18:21:13.781Z,8.39
2019-03-09T18:23:44.965Z,8.35
2019-03-09T18:26:17.057Z,8.31
2019-03-09T18:28:49.766Z,8.31
2019-03-09T18:31:20.922Z,8.24
2019-03-09T18:33:52.803Z,8.20
2019-03-09T18:36:23.907Z,8.08
2019-03-09T18:38:55.011Z,8.03
2019-03-09T18:41:26.124Z,8.00
2019-03-09T18:43:58.257Z,7.93
2019-03-09T18:46:31.022Z,7.89
2019-03-09T18:49:02.199Z,7.82
2019-03-09T18:51:34.422Z,7.74
2019-03-09T18:54:06.590Z,7.63
2019-03-09T18:56:37.755Z,7.60
2019-03-09T18:59:08.877Z,7.55
2019-03-09T19:01:41.040Z,7.47
2019-03-09T19:04:12.291Z,7.45
2019-03-09T19:06:45.366Z,7.38
2019-03-09T19:09:17.477Z,7.33
2019-03-09T19:11:47.950Z,7.26
2019-03-09T19:14:19.101Z,7.21
2019-03-09T19:16:50.369Z,7.21
2019-03-09T19:19:23.086Z,7.23
2019-03-09T19:21:54.161Z,7.25
2019-03-09T19:24:24.713Z,7.24
2019-03-09T19:26:56.194Z,7.22
2019-03-09T19:29:28.199Z,7.25
2019-03-09T19:31:59.513Z,7.15
2019-03-09T19:34:30.851Z,7.02
2019-03-09T19:37:02.990Z,6.86
2019-03-09T19:39:34.202Z,6.75
2019-03-09T19:42:05.392Z,6.66
2019-03-09T19:44:36.542Z,6.62
2019-03-09T19:47:07.679Z,6.57
2019-03-09T19:50:19.224Z,6.56
2019-03-09T19:52:50.379Z,6.50
2019-03-09T19:55:22.595Z,6.47
2019-03-09T19:57:53.912Z,6.44
2019-03-09T20:00:25.152Z,6.39
2019-03-09T20:02:58.429Z,6.32
2019-03-09T20:05:31.157Z,6.26
2019-03-09T20:08:03.914Z,6.23
2019-03-09T20:10:41.819Z,6.21
2019-03-09T20:13:13.166Z,6.18
2019-03-09T20:15:45.949Z,6.13
2019-03-09T20:18:18.278Z,6.03
2019-03-09T20:20:52.238Z,5.96
2019-03-09T20:23:31.990Z,5.97
2019-03-09T20:26:11.785Z,5.99
2019-03-09T20:28:43.380Z,5.97
2019-03-09T20:31:14.553Z,6.00
2019-03-09T20:33:47.242Z,6.02
2019-03-09T20:36:18.413Z,6.08
2019-03-09T20:38:49.623Z,5.96
2019-03-09T20:41:20.866Z,6.11
2019-03-09T20:43:52.016Z,6.17
2019-03-09T20:46:23.291Z,6.25
2019-03-09T20:48:55.036Z,6.20
2019-03-09T20:51:30.684Z,6.23
2019-03-09T20:54:02.076Z,6.25
2019-03-09T20:56:39.366Z,6.27
2019-03-09T20:59:12.041Z,6.28
2019-03-09T21:01:43.262Z,6.27
2019-03-09T21:04:14.443Z,6.36
2019-03-09T21:06:47.506Z,6.32
2019-03-09T21:09:18.754Z,6.31
2019-03-09T21:11:49.900Z,6.40
2019-03-09T21:14:21.108Z,6.40
2019-03-09T21:16:52.303Z,6.43
2019-03-09T21:19:30.539Z,6.50
2019-03-09T21:22:01.679Z,6.56
2019-03-09T21:24:32.885Z,6.69
2019-03-09T21:27:04.070Z,6.72
2019-03-09T21:29:35.224Z,6.76
2019-03-09T21:32:06.394Z,6.84
2019-03-09T21:34:37.619Z,6.87
2019-03-09T21:37:08.778Z,6.92
2019-03-09T21:39:39.925Z,6.95
2019-03-09T21:42:11.696Z,6.94
2019-03-09T21:44:43.040Z,6.95
2019-03-09T21:47:15.177Z,6.97
2019-03-09T21:49:46.466Z,6.99
2019-03-09T21:52:17.628Z,7.01
2019-03-09T21:54:49.791Z,6.99
2019-03-09T21:57:20.917Z,6.92
2019-03-09T21:59:52.120Z,6.86
2019-03-09T22:02:23.311Z,6.75
2019-03-09T22:04:55.066Z,6.67
2019-03-09T22:07:26.247Z,6.62
2019-03-09T22:09:57.377Z,6.56
2019-03-09T22:12:29.494Z,6.52
2019-03-09T22:15:01.361Z,6.47
2019-03-09T22:17:32.554Z,6.40
2019-03-09T22:20:05.407Z,6.37
2019-03-09T22:22:37.014Z,6.34
2019-03-09T22:25:10.604Z,6.30
2019-03-09T22:27:41.711Z,6.30
2019-03-09T22:30:19.002Z,6.30
2019-03-09T22:32:50.133Z,6.30
2019-03-09T22:35:22.394Z,6.22
2019-03-09T22:37:53.727Z,6.17
2019-03-09T22:40:26.495Z,6.12
2019-03-09T22:42:57.692Z,6.10
2019-03-09T22:45:29.883Z,6.13
2019-03-09T22:48:01.021Z,6.15
2019-03-09T22:50:32.256Z,6.19
2019-03-09T22:53:03.434Z,6.15
2019-03-09T22:55:36.071Z,6.12
2019-03-09T22:58:07.594Z,6.16
2019-03-09T23:00:38.104Z,6.10
2019-03-09T23:03:10.760Z,6.08
2019-03-09T23:05:42.938Z,6.01
2019-03-09T23:08:16.351Z,5.99
2019-03-09T23:10:47.522Z,5.92
2019-03-09T23:13:20.433Z,5.83
2019-03-09T23:15:51.600Z,5.76
2019-03-09T23:18:22.771Z,5.73
2019-03-09T23:20:56.818Z,5.70
2019-03-09T23:23:27.978Z,5.63
2019-03-09T23:25:59.222Z,5.59
2019-03-09T23:28:44.379Z,5.64
2019-03-09T23:31:15.645Z,5.61
2019-03-09T23:33:48.087Z,5.66
2019-03-09T23:36:18.839Z,5.66
2019-03-09T23:38:51.809Z,5.65
2019-03-09T23:41:23.011Z,5.65
2019-03-09T23:43:54.156Z,5.66
2019-03-09T23:46:26.939Z,5.60
2019-03-09T23:48:59.106Z,5.58
2019-03-09T23:51:30.358Z,5.60
2019-03-09T23:54:01.539Z,5.58
2019-03-09T23:56:34.030Z,5.58
2019-03-09T23:59:06.138Z,5.55
